createdAt,value
2023-02-24T00:00:26.550Z,73.76
2023-02-24T00:02:58.485Z,74.36
2023-02-24T00:06:10.868Z,74.66
2023-02-24T00:08:54.098Z,74.60
2023-02-24T00:11:31.094Z,74.77
2023-02-24T00:14:12.942Z,74.62
2023-02-24T00:17:19.185Z,75.01
2023-02-24T00:19:57.813Z,75.07
2023-02-24T00:22:24.836Z,75.51
2023-02-24T00:25:07.882Z,75.99
2023-02-24T00:27:43.501Z,76.48
2023-02-24T00:30:14.909Z,75.84
2023-02-24T00:32:41.914Z,75.31
2023-02-24T00:35:12.530Z,74.09
2023-02-24T00:37:51.575Z,73.14
2023-02-24T00:40:23.842Z,71.83
2023-02-24T00:42:57.532Z,72.42
2023-02-24T00:48:35.855Z,72.37
2023-02-24T00:53:56.250Z,71.78
2023-02-24T00:56:35.451Z,72.47
2023-02-24T00:59:09.957Z,72.85
2023-02-24T01:01:56.027Z,72.23
2023-02-24T01:04:51.092Z,72.91
2023-02-24T01:07:19.884Z,73.69
2023-02-24T01:09:56.281Z,73.90
2023-02-24T01:12:55.813Z,74.31
2023-02-24T01:15:36.901Z,74.84
2023-02-24T01:18:27.721Z,75.06
2023-02-24T01:21:19.740Z,75.00
2023-02-24T01:24:00.232Z,75.22
2023-02-24T01:26:38.114Z,75.25
2023-02-24T01:29:09.934Z,75.57
2023-02-24T01:31:38.848Z,75.88
2023-02-24T01:34:06.195Z,76.08
2023-02-24T01:36:48.199Z,75.95
2023-02-24T01:39:15.011Z,76.17
2023-02-24T01:41:47.216Z,76.70
2023-02-24T01:44:20.000Z,76.77
2023-02-24T01:47:33.239Z,76.66
2023-02-24T01:50:22.953Z,76.84
2023-02-24T01:52:59.352Z,76.92
2023-02-24T01:55:41.138Z,77.25
2023-02-24T01:58:29.903Z,77.15
2023-02-24T02:00:58.073Z,76.95
2023-02-24T02:03:36.452Z,77.10
2023-02-24T02:06:17.562Z,76.87
2023-02-24T02:08:51.158Z,76.77
2023-02-24T02:11:27.629Z,76.54
2023-02-24T02:14:09.117Z,76.95
2023-02-24T02:16:43.093Z,76.62
2023-02-24T02:19:41.067Z,75.98
2023-02-24T02:22:42.171Z,77.76
2023-02-24T02:25:26.879Z,74.50
2023-02-24T02:28:17.670Z,70.46
2023-02-24T02:31:18.034Z,68.89
2023-02-24T02:34:19.518Z,67.04
2023-02-24T02:37:22.977Z,70.01
2023-02-24T02:40:20.041Z,68.97
2023-02-24T02:43:09.019Z,66.99
2023-02-24T02:45:58.173Z,67.30
2023-02-24T02:48:58.566Z,69.63
2023-02-24T02:51:52.274Z,72.73
2023-02-24T02:54:52.230Z,73.49
2023-02-24T02:57:31.669Z,74.42
2023-02-24T03:00:38.714Z,71.78
2023-02-24T03:03:44.181Z,72.32
2023-02-24T03:06:42.531Z,73.52
2023-02-24T03:09:27.677Z,74.37
2023-02-24T03:12:11.643Z,74.92
2023-02-24T03:14:57.685Z,74.92
2023-02-24T03:17:33.198Z,74.79
2023-02-24T03:20:33.744Z,74.65
2023-02-24T03:26:21.860Z,75.45
2023-02-24T03:29:10.295Z,73.51
2023-02-24T03:32:15.322Z,74.62
2023-02-24T03:35:12.600Z,74.11
2023-02-24T03:37:50.999Z,74.74
2023-02-24T03:40:28.901Z,75.00
2023-02-24T03:43:23.618Z,72.11
2023-02-24T03:45:50.832Z,70.74
2023-02-24T03:48:36.093Z,69.18
2023-02-24T03:51:06.166Z,70.86
2023-02-24T03:53:34.066Z,71.66
2023-02-24T03:56:47.767Z,70.80
2023-02-24T03:59:55.039Z,73.42
2023-02-24T04:02:40.492Z,74.42
2023-02-24T04:05:33.882Z,75.76
2023-02-24T04:08:27.576Z,76.27
2023-02-24T04:11:39.772Z,76.41
2023-02-24T04:14:28.358Z,77.36
2023-02-24T04:17:34.791Z,77.68
2023-02-24T04:20:18.432Z,78.13
2023-02-24T04:22:57.216Z,78.46
2023-02-24T04:25:37.370Z,78.89
2023-02-24T04:28:19.860Z,77.75
2023-02-24T04:31:10.643Z,78.28
2023-02-24T04:33:42.295Z,76.23
2023-02-24T04:36:42.991Z,72.65
2023-02-24T04:39:15.531Z,69.69
2023-02-24T04:41:51.652Z,71.19
2023-02-24T04:44:29.421Z,67.28
2023-02-24T04:47:14.067Z,68.00
2023-02-24T04:49:51.492Z,69.62
2023-02-24T04:52:25.915Z,70.50
2023-02-24T04:54:53.326Z,71.67
2023-02-24T04:57:32.994Z,73.47
2023-02-24T05:00:02.989Z,74.73
2023-02-24T05:02:33.366Z,75.45
2023-02-24T05:05:10.264Z,75.73
2023-02-24T05:07:39.844Z,75.24
2023-02-24T05:10:20.605Z,75.21
2023-02-24T05:13:01.418Z,75.89
2023-02-24T05:15:48.907Z,76.38
2023-02-24T05:21:27.005Z,76.41
2023-02-24T05:24:11.948Z,77.86
2023-02-24T05:26:42.947Z,74.51
2023-02-24T05:29:22.292Z,72.67
2023-02-24T05:32:00.162Z,72.51
2023-02-24T05:34:35.019Z,73.80
2023-02-24T05:37:11.786Z,72.44
2023-02-24T05:39:38.897Z,69.02
2023-02-24T05:42:07.266Z,67.96
2023-02-24T05:44:43.372Z,65.70
2023-02-24T05:47:54.533Z,66.98
2023-02-24T05:50:35.581Z,67.47
2023-02-24T05:53:11.840Z,67.22
2023-02-24T05:55:52.217Z,67.40
2023-02-24T05:58:26.625Z,65.94
2023-02-24T06:00:53.410Z,66.38
2023-02-24T06:03:31.131Z,64.42
2023-02-24T06:06:09.204Z,65.53
2023-02-24T06:08:57.911Z,67.73
2023-02-24T06:11:32.183Z,71.93
2023-02-24T06:14:01.302Z,68.57
2023-02-24T06:16:39.179Z,68.50
2023-02-24T06:19:24.080Z,70.12
2023-02-24T06:21:54.199Z,71.33
2023-02-24T06:24:22.271Z,72.30
2023-02-24T06:26:50.828Z,72.25
2023-02-24T06:29:41.344Z,72.77
2023-02-24T06:32:13.302Z,73.57
2023-02-24T06:34:41.111Z,73.59
2023-02-24T06:37:17.663Z,73.93
2023-02-24T06:40:04.589Z,69.18
2023-02-24T06:42:31.797Z,70.20
2023-02-24T06:47:43.253Z,70.53
2023-02-24T06:50:27.128Z,70.67
2023-02-24T06:53:03.702Z,71.37
2023-02-24T06:55:48.388Z,73.13
2023-02-24T06:58:28.660Z,69.26
2023-02-24T07:01:12.367Z,69.37
2023-02-24T07:04:11.368Z,69.09
2023-02-24T07:06:50.662Z,67.72
2023-02-24T07:09:20.649Z,66.98
2023-02-24T07:12:01.602Z,65.61
2023-02-24T07:14:37.552Z,65.27
2023-02-24T07:17:09.051Z,67.70
2023-02-24T07:19:45.742Z,66.40
2023-02-24T07:22:31.264Z,64.74
2023-02-24T07:25:39.651Z,66.78
2023-02-24T07:28:26.232Z,66.43
2023-02-24T07:31:04.355Z,66.95
2023-02-24T07:33:34.638Z,66.72
2023-02-24T07:36:15.084Z,65.44
2023-02-24T07:38:47.849Z,67.31
2023-02-24T07:41:22.647Z,68.86
2023-02-24T07:44:02.230Z,69.67
2023-02-24T07:46:45.056Z,68.20
2023-02-24T07:49:28.096Z,69.29
2023-02-24T07:52:00.609Z,66.56
2023-02-24T07:54:30.496Z,66.07
2023-02-24T07:57:06.947Z,64.87
2023-02-24T08:00:48.321Z,66.21
2023-02-24T08:03:14.432Z,66.78
2023-02-24T08:05:43.865Z,66.42
2023-02-24T08:08:31.624Z,65.71
2023-02-24T08:11:43.645Z,67.01
2023-02-24T08:14:14.486Z,68.07
2023-02-24T08:16:49.405Z,69.25
2023-02-24T08:19:25.490Z,69.91
2023-02-24T08:21:53.636Z,67.47
2023-02-24T08:24:33.310Z,65.81
2023-02-24T08:27:22.215Z,64.81
2023-02-24T08:30:00.281Z,65.27
2023-02-24T08:32:59.755Z,64.60
2023-02-24T08:35:45.306Z,65.49
2023-02-24T08:38:42.441Z,63.91
2023-02-24T08:41:56.591Z,63.64
2023-02-24T08:44:39.213Z,64.86
2023-02-24T08:47:15.658Z,64.48
2023-02-24T08:49:42.733Z,64.76
2023-02-24T08:52:10.678Z,64.08
2023-02-24T08:54:56.886Z,63.27
2023-02-24T08:57:30.734Z,63.59
2023-02-24T09:00:07.302Z,64.29
2023-02-24T09:02:54.988Z,64.06
2023-02-24T09:05:26.153Z,64.09
2023-02-24T09:08:05.347Z,64.17
2023-02-24T09:10:43.600Z,63.96
2023-02-24T09:13:12.697Z,63.26
2023-02-24T09:15:41.995Z,63.17
2023-02-24T09:18:09.868Z,63.05
2023-02-24T09:21:20.541Z,62.96
2023-02-24T09:23:52.868Z,64.95
2023-02-24T09:26:23.850Z,65.02
2023-02-24T09:28:56.592Z,64.23
2023-02-24T09:31:41.082Z,63.43
2023-02-24T09:34:19.500Z,63.69
2023-02-24T09:37:12.692Z,63.64
2023-02-24T09:39:58.984Z,63.32
2023-02-24T09:45:38.186Z,62.89
2023-02-24T09:48:59.635Z,61.95
2023-02-24T09:51:30.618Z,62.02
2023-02-24T09:54:13.709Z,61.73
2023-02-24T09:57:08.502Z,62.01
2023-02-24T10:00:04.294Z,61.97
2023-02-24T10:03:04.015Z,61.06
2023-02-24T10:05:49.450Z,60.50
2023-02-24T10:08:29.246Z,60.55
2023-02-24T10:11:07.300Z,60.30
2023-02-24T10:13:51.937Z,59.91
2023-02-24T10:16:44.976Z,60.13
2023-02-24T10:19:34.367Z,59.50
2023-02-24T10:22:23.243Z,60.02
2023-02-24T10:25:01.619Z,59.77
2023-02-24T10:27:56.178Z,59.17
2023-02-24T10:31:25.588Z,59.26
2023-02-24T10:34:45.673Z,58.55
2023-02-24T10:37:30.968Z,58.88
2023-02-24T10:40:38.813Z,58.48
2023-02-24T10:43:51.560Z,57.63
2023-02-24T10:46:45.001Z,57.82
2023-02-24T10:49:20.456Z,57.54
2023-02-24T10:52:19.281Z,57.29
2023-02-24T10:55:08.770Z,57.58
2023-02-24T10:57:59.145Z,56.98
2023-02-24T11:00:53.991Z,57.16
2023-02-24T11:03:46.347Z,56.73
2023-02-24T11:06:42.528Z,56.02
2023-02-24T11:09:40.216Z,55.84
2023-02-24T11:12:47.297Z,55.53
2023-02-24T11:15:50.995Z,55.55
2023-02-24T11:18:31.452Z,55.56
2023-02-24T11:21:06.579Z,55.94
2023-02-24T11:23:59.936Z,56.52
2023-02-24T11:26:48.836Z,56.91
2023-02-24T11:29:25.679Z,56.67
2023-02-24T11:32:23.715Z,57.14
2023-02-24T11:35:06.784Z,56.86
2023-02-24T11:37:43.348Z,57.53
2023-02-24T11:40:32.205Z,56.85
2023-02-24T11:43:04.604Z,56.84
2023-02-24T11:45:55.216Z,56.85
2023-02-24T11:48:32.937Z,57.37
2023-02-24T11:51:27.672Z,57.28
2023-02-24T11:54:10.776Z,57.30
2023-02-24T11:57:06.745Z,57.18
2023-02-24T11:59:49.963Z,57.61
2023-02-24T12:02:43.887Z,56.71
2023-02-24T12:05:28.612Z,56.16
2023-02-24T12:08:11.039Z,56.80
2023-02-24T12:10:47.726Z,57.21
2023-02-24T12:14:03.653Z,56.89
2023-02-24T12:16:53.809Z,57.52
2023-02-24T12:19:52.150Z,57.33
2023-02-24T12:22:35.812Z,57.54
2023-02-24T12:25:13.348Z,57.21
2023-02-24T12:28:11.437Z,57.03
2023-02-24T12:31:00.852Z,57.27
2023-02-24T12:34:00.382Z,57.62
2023-02-24T12:37:11.291Z,57.32
2023-02-24T12:39:58.984Z,56.56
2023-02-24T12:42:36.019Z,56.40
2023-02-24T12:45:26.538Z,57.16
2023-02-24T12:48:09.476Z,57.26
2023-02-24T12:51:08.410Z,56.97
2023-02-24T12:54:22.149Z,57.23
2023-02-24T12:56:59.054Z,57.04
2023-02-24T12:59:33.144Z,57.22
2023-02-24T13:02:31.905Z,56.86
2023-02-24T13:08:39.392Z,57.59
2023-02-24T13:11:46.846Z,57.54
2023-02-24T13:14:42.093Z,57.39
2023-02-24T13:17:11.901Z,57.70
2023-02-24T13:19:58.486Z,57.90
2023-02-24T13:22:33.908Z,58.13
2023-02-24T13:25:30.198Z,57.99
2023-02-24T13:28:02.666Z,58.07
2023-02-24T13:30:56.534Z,58.52
2023-02-24T13:33:56.106Z,57.84
2023-02-24T13:36:55.596Z,58.04
2023-02-24T13:39:55.100Z,57.59
2023-02-24T13:42:39.711Z,57.56
2023-02-24T13:45:16.279Z,57.86
2023-02-24T13:48:14.646Z,57.72
2023-02-24T13:51:12.084Z,57.40
2023-02-24T13:54:15.460Z,57.27
2023-02-24T13:57:25.279Z,57.04
2023-02-24T14:00:18.457Z,57.11
2023-02-24T14:05:52.718Z,57.41
2023-02-24T14:08:40.633Z,57.51
2023-02-24T14:11:12.974Z,58.09
2023-02-24T14:13:50.703Z,57.21
2023-02-24T14:16:33.579Z,57.42
2023-02-24T14:19:06.778Z,57.53
2023-02-24T14:21:37.476Z,57.42
2023-02-24T14:24:18.217Z,57.25
2023-02-24T14:27:02.927Z,57.08
2023-02-24T14:29:47.581Z,57.28
2023-02-24T14:32:27.697Z,57.19
2023-02-24T14:35:02.044Z,57.55
2023-02-24T14:37:36.206Z,57.75
2023-02-24T14:40:18.182Z,57.77
2023-02-24T14:42:54.687Z,58.21
2023-02-24T14:45:40.002Z,58.00
2023-02-24T14:48:07.832Z,57.40
2023-02-24T14:50:40.843Z,57.56
2023-02-24T14:53:16.771Z,58.73
2023-02-24T14:55:52.705Z,58.42
2023-02-24T14:59:11.298Z,58.05
2023-02-24T15:01:42.269Z,57.75
2023-02-24T15:04:47.468Z,58.16
2023-02-24T15:07:38.120Z,58.48
2023-02-24T15:10:22.166Z,58.37
2023-02-24T15:13:01.038Z,58.94
2023-02-24T15:15:50.402Z,58.50
2023-02-24T15:18:29.607Z,58.78
2023-02-24T15:21:07.746Z,58.77
2023-02-24T15:26:32.585Z,58.63
2023-02-24T15:29:08.133Z,58.76
2023-02-24T15:34:33.225Z,58.86
2023-02-24T15:37:26.048Z,58.49
2023-02-24T15:40:29.653Z,58.89
2023-02-24T15:43:14.155Z,58.51
2023-02-24T15:45:41.649Z,58.85
2023-02-24T15:48:31.083Z,59.09
2023-02-24T15:51:08.813Z,59.88
2023-02-24T15:53:40.642Z,59.67
2023-02-24T15:56:13.906Z,59.01
2023-02-24T15:58:45.361Z,59.50
2023-02-24T16:01:29.954Z,59.00
2023-02-24T16:04:18.243Z,59.13
2023-02-24T16:06:55.341Z,58.80
2023-02-24T16:09:40.504Z,58.83
2023-02-24T16:12:22.015Z,58.79
2023-02-24T16:14:57.838Z,58.84
2023-02-24T16:21:01.133Z,59.95
2023-02-24T16:23:28.001Z,59.56
2023-02-24T16:26:20.971Z,59.84
2023-02-24T16:28:57.712Z,58.90
2023-02-24T16:31:28.920Z,58.31
2023-02-24T16:33:58.649Z,57.73
2023-02-24T16:36:29.142Z,57.51
2023-02-24T16:39:01.922Z,57.76
2023-02-24T16:41:53.408Z,57.84
2023-02-24T16:44:24.790Z,57.14
2023-02-24T16:47:17.860Z,57.64
2023-02-24T16:49:45.130Z,57.20
2023-02-24T16:52:13.335Z,57.22
2023-02-24T16:54:40.100Z,57.71
2023-02-24T16:57:28.727Z,57.54
2023-02-24T17:02:59.096Z,57.30
2023-02-24T17:05:37.757Z,57.63
2023-02-24T17:08:08.606Z,57.11
2023-02-24T17:10:56.579Z,57.44
2023-02-24T17:13:32.439Z,57.46
2023-02-24T17:16:04.765Z,57.07
2023-02-24T17:18:31.586Z,57.38
2023-02-24T17:21:20.686Z,57.74
2023-02-24T17:23:53.529Z,57.50
2023-02-24T17:26:21.880Z,57.66
2023-02-24T17:28:58.660Z,57.49
2023-02-24T17:31:33.738Z,57.56
2023-02-24T17:34:06.469Z,56.82
2023-02-24T17:36:38.281Z,56.61
2023-02-24T17:39:08.826Z,57.00
2023-02-24T17:41:45.228Z,57.26
2023-02-24T17:44:21.283Z,57.74
2023-02-24T17:46:52.669Z,57.78
2023-02-24T17:49:58.473Z,57.96
2023-02-24T17:52:25.677Z,57.98
2023-02-24T17:54:55.020Z,57.76
2023-02-24T17:57:23.677Z,58.10
2023-02-24T18:00:07.608Z,57.57
2023-02-24T18:02:42.081Z,58.04
2023-02-24T18:05:23.834Z,58.29
2023-02-24T18:08:00.138Z,58.34
2023-02-24T18:10:30.676Z,58.27
2023-02-24T18:13:09.018Z,57.43
2023-02-24T18:15:57.743Z,58.06
2023-02-24T18:18:34.234Z,57.89
2023-02-24T18:21:09.687Z,58.37
2023-02-24T18:23:57.258Z,57.96
2023-02-24T18:26:59.650Z,58.40
2023-02-24T18:32:27.677Z,57.60
2023-02-24T18:35:02.289Z,58.01
2023-02-24T18:40:36.807Z,57.97
2023-02-24T18:43:16.746Z,58.64
2023-02-24T18:45:43.963Z,58.17
2023-02-24T18:48:13.654Z,58.22
2023-02-24T18:50:46.750Z,58.23
2023-02-24T18:53:16.688Z,58.54
2023-02-24T18:55:44.702Z,58.06
2023-02-24T18:58:43.533Z,58.10
2023-02-24T19:01:25.566Z,58.09
2023-02-24T19:04:05.129Z,58.32
2023-02-24T19:06:40.737Z,58.60
2023-02-24T19:09:19.796Z,58.75
2023-02-24T19:11:54.233Z,58.47
2023-02-24T19:14:21.128Z,58.67
2023-02-24T19:16:48.998Z,58.74
2023-02-24T19:19:29.750Z,58.87
2023-02-24T19:22:04.762Z,58.77
2023-02-24T19:24:52.169Z,59.06
2023-02-24T19:27:32.606Z,58.66
2023-02-24T19:30:08.961Z,58.72
2023-02-24T19:32:44.049Z,58.76
2023-02-24T19:35:15.824Z,58.44
2023-02-24T19:37:53.729Z,58.80
2023-02-24T19:40:34.805Z,58.72
2023-02-24T19:43:12.696Z,58.93
2023-02-24T19:45:50.993Z,58.73
2023-02-24T19:48:23.931Z,58.85
2023-02-24T19:51:05.703Z,58.88
2023-02-24T19:53:35.431Z,59.10
2023-02-24T19:56:03.978Z,58.99
2023-02-24T19:58:39.214Z,59.28
2023-02-24T20:01:16.824Z,58.56
2023-02-24T20:03:53.709Z,58.66
2023-02-24T20:06:31.662Z,58.89
2023-02-24T20:09:04.747Z,59.27
2023-02-24T20:11:45.905Z,59.17
2023-02-24T20:14:15.299Z,59.72
2023-02-24T20:16:46.035Z,60.02
2023-02-24T20:19:32.437Z,60.14
2023-02-24T20:22:27.996Z,59.97
2023-02-24T20:25:00.555Z,60.13
2023-02-24T20:27:52.632Z,60.42
2023-02-24T20:30:26.358Z,59.89
2023-02-24T20:32:56.677Z,60.08
2023-02-24T20:35:26.881Z,60.42
2023-02-24T20:37:57.711Z,60.65
2023-02-24T20:40:26.880Z,60.56
2023-02-24T20:43:26.268Z,60.56
2023-02-24T20:45:56.371Z,61.10
2023-02-24T20:48:32.944Z,60.66
2023-02-24T20:51:21.810Z,60.99
2023-02-24T20:57:20.576Z,61.16
2023-02-24T21:00:02.997Z,60.93
2023-02-24T21:02:39.461Z,61.67
2023-02-24T21:05:58.866Z,61.37
2023-02-24T21:11:05.275Z,61.23
2023-02-24T21:13:31.992Z,61.45
2023-02-24T21:15:58.687Z,61.00
2023-02-24T21:18:25.505Z,61.49
2023-02-24T21:20:54.138Z,61.66
2023-02-24T21:26:13.190Z,61.61
2023-02-24T21:28:47.154Z,62.19
2023-02-24T21:31:24.377Z,61.90
2023-02-24T21:33:52.387Z,62.06
2023-02-24T21:36:26.439Z,61.68
2023-02-24T21:39:00.740Z,61.78
2023-02-24T21:41:27.712Z,61.79
2023-02-24T21:44:18.368Z,62.71
2023-02-24T21:47:13.365Z,61.25
2023-02-24T21:49:49.888Z,61.70
2023-02-24T21:55:01.317Z,62.29
2023-02-24T21:57:28.536Z,62.39
2023-02-24T22:00:20.907Z,62.25
2023-02-24T22:02:54.695Z,62.08
2023-02-24T22:05:39.715Z,62.01
2023-02-24T22:08:26.747Z,62.45
2023-02-24T22:11:06.846Z,62.76
2023-02-24T22:13:33.642Z,62.73
2023-02-24T22:16:21.586Z,63.12
2023-02-24T22:19:29.712Z,62.46
2023-02-24T22:22:21.266Z,62.85
2023-02-24T22:25:08.066Z,62.73
2023-02-24T22:28:04.945Z,62.52
2023-02-24T22:30:44.043Z,62.55
2023-02-24T22:33:18.961Z,62.75
2023-02-24T22:35:55.172Z,63.00
2023-02-24T22:38:39.442Z,62.93
2023-02-24T22:41:29.694Z,63.46
2023-02-24T22:44:10.955Z,64.08
2023-02-24T22:46:47.089Z,63.78
2023-02-24T22:49:37.971Z,64.41
2023-02-24T22:52:24.774Z,64.62
2023-02-24T22:55:03.395Z,64.76
2023-02-24T22:57:45.289Z,64.38
2023-02-24T23:00:38.292Z,63.99
2023-02-24T23:06:17.913Z,65.40
2023-02-24T23:09:00.504Z,65.33
2023-02-24T23:11:34.350Z,65.18
2023-02-24T23:14:10.322Z,64.97
2023-02-24T23:16:59.849Z,64.49
2023-02-24T23:19:38.808Z,64.36
2023-02-24T23:22:23.213Z,63.97
2023-02-24T23:25:05.843Z,64.09
2023-02-24T23:28:01.763Z,64.87
2023-02-24T23:31:05.165Z,65.13
2023-02-24T23:33:39.790Z,65.07
2023-02-24T23:36:20.854Z,64.69
2023-02-24T23:39:12.103Z,64.12
2023-02-24T23:42:23.056Z,64.82
2023-02-24T23:45:08.705Z,64.98
2023-02-24T23:50:57.951Z,66.29
2023-02-24T23:53:59.656Z,65.35
2023-02-24T23:56:40.705Z,66.38
2023-02-24T23:59:08.005Z,65.03
